KSAVKHXD

Guest
Details From KSAV - Savannah Hilton Head Intl
To KHXD - Hilton Head
Flight Number -
Tags generated
Created
Modified
Stats Distance 27 nm / 50 km
Max Altitude 400 ft / 122 m
Waypoints 3
Social Downloads 0
Likes 0
Share VATSIM

Download

Looking for another format? Having issues loading an existing format? Contact us
Advertisement - Login to hide

Notes

Basic altitude profile: - Ascent Rate: 1200ft/min - Ascent Speed: 150kts - Cruise Altitude: 6000ft - Cruise Speed: 160kts - Descent Rate: 1200ft/min - Descent Speed: 140kts Options: - Use NATs: no - Use PACOTS: no - Use low airways: no - Use high airways: yes

Route

KSAV SAV KHXD

ID Type Via Altitude Latitude Longitude Leg Dist Tot Dist Heading (true) Name
O KSAV APT - 0 ft / 0 m 32.12740˚ -81.20188˚ - 0 nm - Savannah Hilton Head Intl
SAV VOR - 400 ft / 122 m 32.14625˚ -81.19911˚ 1 nm 1 nm 7° / 7° SAVANNAH VORTAC
O KHXD APT - 0 ft / 0 m 32.22436˚ -80.69747˚ 25 nm 27 nm 79° / 80° Hilton Head

Altitude Profile

Advertisement - Login to hide

KSAV

Details ICAO KSAV (SAV)
Name Savannah Hilton Head Intl
Region United States
Timezone America/New_York (UTC-5.0)
Stats Elevation 51 ft / 16 m (AMSL)
Location 32.127403° -81.201878°
Runways 2
Magnetic Variation 7.026° W

METAR

KSAV 130253Z 29013G21KT 10SM CLR 08/M01 A2993 RMK AO2 SLP135 T00831006 51021

Decode

TAF

TAF KSAV 122321Z 1300/1324 29013G20KT P6SM SKC FM130600 30009KT P6SM SKC FM131800 25009KT P6SM SKC

Decode

Departure Runways

ID Width Length Bearing (true) Bearing (mag) Surface Threshold Offset Overrun Length
01 150 ft / 46 m 7,024 ft / 2,141 m 359.63° 6.66° Concrete 0 ft / 0 m 0 ft / 0 m
10 150 ft / 46 m 9,334 ft / 2,845 m 90.61° 97.64° Concrete 0 ft / 0 m 1,000 ft / 305 m
19 150 ft / 46 m 7,024 ft / 2,141 m 179.63° 186.66° Concrete 0 ft / 0 m 0 ft / 0 m
28 150 ft / 46 m 9,334 ft / 2,845 m 270.63° 277.66° Concrete 0 ft / 0 m 150 ft / 46 m

KHXD

Details ICAO KHXD (HXD)
Name Hilton Head
Region United States
Timezone America/New_York (UTC-5.0)
Stats Elevation 19 ft / 6 m (AMSL)
Location 32.224361° -80.697475°
Runways 1
Magnetic Variation 7.365° W

METAR

KHXD 130335Z AUTO VRB06G18KT 10SM CLR 09/M02 A2992 RMK AO2

Decode

TAF

Not found

Destination Runways

ID Width Length Bearing (true) Bearing (mag) Surface Threshold Offset Overrun Length
03 98 ft / 30 m 4,309 ft / 1,313 m 25.97° 33.34° Asphalt 299 ft / 91 m 59 ft / 18 m
21 98 ft / 30 m 4,309 ft / 1,313 m 205.97° 213.34° Asphalt 272 ft / 83 m 75 ft / 23 m

Approach Navaids

Runway Type Ident Frequency Range Bearing (true) Bearing (mag) Slope Elevation
21 Localiser IHXD 111.30 MHz 18 nm / 33 km 205.97° 213.33° - 19 ft / 6 m (AMSL)
21 DME IHXD 111.30 MHz 18 nm / 33 km - - - 19 ft / 6 m (AMSL)

Popular Alternatives